Time;durP1;ratioP1;P1;durP2;ratioP2;P2;SDS_P1;SDS_P2;PMS_P1;PMS_P2;Temp;Humidity;BMP_temperature;BMP_pressure;BME280_temperature;BME280_humidity;BME280_pressure;Samples;Min_cycle;Max_cycle;Signal;HPM_P1;HPM_P2
2021/12/06 00:02:07;;;;;;;42.00;25.25;;;2.90;99.90;;;;;;5135504;27;20035;-73
2021/12/06 00:04:36;;;;;;;41.80;25.77;;;2.90;99.90;;;;;;5135466;27;20035;-73
2021/12/06 00:07:10;;;;;;;45.40;23.73;;;2.80;99.90;;;;;;5134891;27;20039;-73
2021/12/06 00:09:36;;;;;;;40.13;23.35;;;2.80;99.90;;;;;;5134276;27;20113;-73
2021/12/06 00:12:03;;;;;;;42.03;23.50;;;2.80;99.90;;;;;;5135091;27;20058;-73
2021/12/06 00:14:34;;;;;;;45.53;24.85;;;2.80;99.90;;;;;;5135132;27;20392;-73
2021/12/06 00:17:04;;;;;;;40.90;22.83;;;2.80;99.90;;;;;;5116669;27;20043;-73
2021/12/06 00:19:30;;;;;;;42.83;23.92;;;2.80;99.90;;;;;;5133744;27;20481;-73
2021/12/06 00:21:58;;;;;;;41.38;23.65;;;2.80;99.90;;;;;;5133819;27;20427;-73
2021/12/06 00:24:25;;;;;;;41.92;24.27;;;2.80;99.90;;;;;;5134445;27;20047;-73
2021/12/06 00:26:51;;;;;;;44.38;24.05;;;2.70;99.90;;;;;;5133302;27;20115;-73
2021/12/06 00:29:18;;;;;;;44.83;25.17;;;2.80;99.90;;;;;;5135172;27;20392;-73
2021/12/06 00:31:44;;;;;;;46.97;25.20;;;2.70;99.90;;;;;;5135039;27;20465;-73
2021/12/06 00:34:14;;;;;;;46.08;25.08;;;2.70;99.90;;;;;;5135162;27;20038;-73
2021/12/06 00:36:50;;;;;;;49.65;25.70;;;2.60;99.90;;;;;;5134645;27;20043;-73
2021/12/06 00:39:16;;;;;;;47.65;25.10;;;2.60;99.90;;;;;;5134897;27;20082;-73
2021/12/06 00:41:42;;;;;;;42.60;25.05;;;2.70;99.90;;;;;;5134709;27;20074;-73
2021/12/06 00:44:08;;;;;;;43.60;23.80;;;2.70;99.90;;;;;;5133346;27;20047;-73
2021/12/06 00:46:38;;;;;;;44.78;23.42;;;2.70;99.90;;;;;;5132962;27;20051;-73
2021/12/06 00:49:06;;;;;;;45.75;25.00;;;2.70;99.90;;;;;;5133263;27;20043;-73
2021/12/06 00:51:32;;;;;;;45.67;26.05;;;2.70;99.90;;;;;;5133031;27;20100;-73
2021/12/06 00:53:58;;;;;;;44.20;25.88;;;2.70;99.90;;;;;;5134443;27;20047;-73
2021/12/06 00:56:24;;;;;;;47.95;24.40;;;2.70;99.90;;;;;;5134614;27;20050;-73
2021/12/06 00:58:49;;;;;;;46.28;24.52;;;2.70;99.90;;;;;;5125305;27;20038;-73
2021/12/06 01:01:15;;;;;;;44.63;24.60;;;2.70;99.90;;;;;;5112634;28;20394;-73
2021/12/06 01:03:43;;;;;;;45.08;25.20;;;2.70;99.90;;;;;;5113759;28;20038;-73
2021/12/06 01:06:10;;;;;;;46.45;25.17;;;2.70;99.90;;;;;;5113771;28;20062;-73
2021/12/06 01:08:36;;;;;;;53.28;25.65;;;2.70;99.90;;;;;;5112418;28;20043;-73
2021/12/06 01:11:03;;;;;;;46.88;24.50;;;2.70;99.90;;;;;;5113481;28;20043;-73
2021/12/06 01:13:30;;;;;;;49.63;26.45;;;2.70;99.90;;;;;;5113009;28;20031;-73
2021/12/06 01:15:55;;;;;;;49.92;27.45;;;2.70;99.90;;;;;;5113770;28;20051;-74
2021/12/06 01:18:22;;;;;;;46.53;26.48;;;2.80;99.90;;;;;;5112801;28;20150;-73
2021/12/06 01:21:08;;;;;;;48.08;27.63;;;2.70;99.90;;;;;;5112542;28;20073;-73
2021/12/06 01:24:10;;;;;;;48.20;26.98;;;2.70;99.90;;;;;;5112459;28;20645;-73
2021/12/06 01:39:22;;;;;;;46.28;26.23;;;2.80;99.90;;;;;;5114303;28;20040;-73
2021/12/06 01:41:55;;;;;;;45.72;26.08;;;2.80;99.90;;;;;;5113324;28;20081;-73
2021/12/06 01:44:26;;;;;;;50.40;27.13;;;2.80;99.90;;;;;;5114018;28;20058;-73
2021/12/06 01:46:58;;;;;;;46.08;25.17;;;2.80;99.90;;;;;;5113310;28;20031;-74
2021/12/06 01:49:27;;;;;;;46.60;25.35;;;2.80;99.90;;;;;;5112604;28;20039;-73
2021/12/06 01:51:55;;;;;;;45.15;24.80;;;2.90;99.90;;;;;;5113970;28;20043;-73
2021/12/06 01:54:22;;;;;;;44.63;25.50;;;2.90;99.90;;;;;;5113378;28;20096;-73
2021/12/06 01:56:49;;;;;;;49.17;27.73;;;2.90;99.90;;;;;;5115744;28;20050;-73
2021/12/06 01:59:16;;;;;;;51.97;27.75;;;2.80;99.90;;;;;;5117676;28;20063;-73
2021/12/06 02:01:42;;;;;;;53.55;26.60;;;2.80;99.90;;;;;;5116376;28;20566;-73
2021/12/06 02:04:08;;;;;;;51.42;26.13;;;2.90;99.90;;;;;;5116411;28;20039;-73
2021/12/06 02:06:35;;;;;;;48.75;25.50;;;2.90;99.90;;;;;;5117248;28;20046;-73
2021/12/06 02:09:03;;;;;;;46.42;25.90;;;2.90;99.90;;;;;;5117394;28;20043;-73
2021/12/06 02:11:32;;;;;;;56.97;27.92;;;2.80;99.90;;;;;;5116884;28;20040;-73
2021/12/06 02:14:06;;;;;;;48.25;26.13;;;2.80;99.90;;;;;;5116966;28;20031;-73
2021/12/06 02:16:41;;;;;;;48.50;26.30;;;2.90;99.90;;;;;;5116931;28;20467;-73
2021/12/06 02:19:09;;;;;;;51.60;27.52;;;2.90;99.90;;;;;;5116903;27;20499;-73
2021/12/06 02:21:39;;;;;;;51.40;29.30;;;2.90;99.90;;;;;;5116927;28;20092;-73
2021/12/06 02:24:08;;;;;;;49.70;26.77;;;2.80;99.90;;;;;;5115815;28;20369;-73
2021/12/06 02:26:35;;;;;;;50.33;25.88;;;2.80;99.90;;;;;;5115114;28;20063;-73
2021/12/06 02:29:01;;;;;;;49.10;26.58;;;2.80;99.90;;;;;;5117186;28;20035;-73
2021/12/06 02:31:27;;;;;;;49.70;25.73;;;2.80;99.90;;;;;;5116418;28;20039;-73
2021/12/06 02:33:54;;;;;;;51.28;26.63;;;2.80;99.90;;;;;;5116717;28;20138;-73
2021/12/06 02:36:22;;;;;;;46.33;25.88;;;2.80;99.90;;;;;;5116635;28;20048;-73
2021/12/06 02:38:48;;;;;;;46.47;26.58;;;2.80;99.90;;;;;;5115418;28;20045;-73
2021/12/06 02:41:18;;;;;;;52.65;28.40;;;2.90;99.90;;;;;;5115461;28;20047;-73
2021/12/06 02:43:46;;;;;;;52.20;26.70;;;2.90;99.90;;;;;;5116323;28;20048;-73
2021/12/06 02:46:11;;;;;;;54.92;28.50;;;2.90;99.90;;;;;;5116187;28;20054;-73
2021/12/06 02:48:37;;;;;;;54.33;28.27;;;2.90;99.90;;;;;;5116454;28;20027;-73
2021/12/06 02:51:06;;;;;;;54.97;28.60;;;2.90;99.90;;;;;;5116108;28;20050;-73
2021/12/06 02:53:34;;;;;;;53.45;27.85;;;2.90;99.90;;;;;;5116522;28;20508;-73
2021/12/06 02:56:05;;;;;;;53.28;28.42;;;2.90;99.90;;;;;;5116298;28;20469;-73
2021/12/06 03:01:17;;;;;;;49.28;26.83;;;2.90;99.90;;;;;;5116138;28;20054;-73
2021/12/06 03:03:43;;;;;;;51.40;28.65;;;2.90;99.90;;;;;;5115079;28;20058;-73
2021/12/06 03:06:09;;;;;;;52.45;26.95;;;2.90;99.90;;;;;;5114313;28;20046;-73
2021/12/06 03:08:37;;;;;;;49.92;26.45;;;2.90;99.90;;;;;;5116228;28;20039;-73
2021/12/06 03:11:04;;;;;;;51.17;27.80;;;2.80;99.90;;;;;;5116087;28;20054;-73
2021/12/06 03:13:30;;;;;;;50.85;27.27;;;2.90;99.90;;;;;;5116255;28;20123;-73
2021/12/06 03:15:55;;;;;;;52.20;27.08;;;2.80;99.90;;;;;;5114320;28;20063;-73
2021/12/06 03:18:21;;;;;;;46.33;25.50;;;2.90;99.90;;;;;;5114955;28;20096;-73
2021/12/06 03:20:46;;;;;;;50.67;27.15;;;2.90;99.90;;;;;;5114480;28;20489;-73
2021/12/06 03:23:12;;;;;;;51.05;26.42;;;2.80;99.90;;;;;;5116119;28;20043;-73
2021/12/06 03:25:38;;;;;;;56.55;29.05;;;2.90;99.90;;;;;;5115753;28;20130;-73
2021/12/06 03:28:03;;;;;;;50.20;25.80;;;2.90;99.90;;;;;;5115553;28;20074;-73
2021/12/06 03:30:29;;;;;;;51.42;27.45;;;2.90;99.90;;;;;;5114102;28;20486;-73
2021/12/06 03:32:55;;;;;;;54.08;27.80;;;2.90;99.90;;;;;;5115944;28;20040;-73
2021/12/06 03:35:20;;;;;;;51.95;27.38;;;2.90;99.90;;;;;;5115566;28;20042;-73
2021/12/06 03:37:46;;;;;;;52.35;28.27;;;2.90;99.90;;;;;;5115049;28;20088;-73
2021/12/06 03:40:12;;;;;;;52.15;25.98;;;2.90;99.90;;;;;;5115632;27;20396;-73
2021/12/06 03:42:39;;;;;;;51.38;27.45;;;2.90;99.90;;;;;;5114055;28;20511;-73
2021/12/06 03:45:07;;;;;;;50.95;26.90;;;2.90;99.90;;;;;;5097379;28;20540;-73
2021/12/06 03:47:32;;;;;;;50.00;25.45;;;2.90;99.90;;;;;;5115050;28;20096;-73
2021/12/06 03:49:59;;;;;;;55.88;28.90;;;2.90;99.90;;;;;;5114068;28;20105;-73
2021/12/06 03:52:25;;;;;;;53.28;27.27;;;2.80;99.90;;;;;;5113682;28;20044;-73
2021/12/06 03:54:51;;;;;;;65.00;30.23;;;2.90;99.90;;;;;;5114086;28;20044;-73
2021/12/06 03:57:18;;;;;;;71.28;34.13;;;2.90;99.90;;;;;;5096305;28;20089;-73
2021/12/06 03:59:44;;;;;;;63.92;32.38;;;2.90;99.90;;;;;;5115043;28;20051;-73
2021/12/06 04:02:10;;;;;;;65.38;30.77;;;2.90;99.90;;;;;;5113527;28;20396;-73
2021/12/06 04:04:36;;;;;;;65.30;30.23;;;2.90;99.90;;;;;;5114874;28;20047;-73
2021/12/06 04:07:03;;;;;;;58.13;29.20;;;2.90;99.90;;;;;;5096161;28;20458;-73
2021/12/06 04:09:28;;;;;;;63.53;29.33;;;2.90;99.90;;;;;;5115256;28;20477;-73
2021/12/06 04:11:54;;;;;;;59.42;30.80;;;2.90;99.90;;;;;;5115016;28;20088;-73
2021/12/06 04:14:20;;;;;;;58.92;28.00;;;2.90;99.90;;;;;;5113785;28;20036;-73
2021/12/06 04:16:46;;;;;;;58.13;28.33;;;2.90;99.90;;;;;;5114572;28;20036;-73
2021/12/06 04:19:12;;;;;;;57.75;28.25;;;2.90;99.90;;;;;;5114400;28;20036;-73
2021/12/06 04:21:41;;;;;;;56.47;27.77;;;3.00;99.90;;;;;;5114440;27;20035;-73
2021/12/06 04:24:07;;;;;;;52.42;26.33;;;3.00;99.90;;;;;;5114661;28;20101;-73
2021/12/06 04:26:33;;;;;;;59.88;29.02;;;2.90;99.90;;;;;;5114069;28;20039;-73
2021/12/06 04:29:00;;;;;;;61.08;29.20;;;3.00;99.90;;;;;;5114834;28;20472;-73
2021/12/06 04:31:31;;;;;;;62.17;30.35;;;3.00;99.90;;;;;;5114324;28;20048;-73
2021/12/06 04:33:57;;;;;;;60.47;29.52;;;2.90;99.90;;;;;;5096577;28;20370;-73
2021/12/06 04:36:23;;;;;;;62.33;30.25;;;3.00;99.90;;;;;;5114275;28;20031;-72
2021/12/06 04:38:49;;;;;;;58.55;29.42;;;3.00;99.90;;;;;;5114041;28;20045;-73
2021/12/06 04:41:15;;;;;;;60.50;29.08;;;3.00;99.90;;;;;;5114219;28;20039;-73
2021/12/06 04:43:41;;;;;;;60.95;28.77;;;2.90;99.90;;;;;;5114357;28;20484;-73
2021/12/06 04:46:06;;;;;;;66.75;32.55;;;2.90;99.90;;;;;;5112609;28;20048;-73
2021/12/06 04:48:32;;;;;;;68.55;32.45;;;2.90;99.90;;;;;;5113027;28;20086;-73
2021/12/06 04:50:58;;;;;;;60.95;28.15;;;2.90;99.90;;;;;;5112689;28;20043;-73
2021/12/06 04:53:28;;;;;;;71.95;31.73;;;2.90;99.90;;;;;;5112932;28;20035;-73
2021/12/06 04:56:02;;;;;;;61.58;30.77;;;2.90;99.90;;;;;;5129679;27;20051;-73
2021/12/06 04:58:39;;;;;;;60.60;30.15;;;2.90;99.90;;;;;;5112887;28;20434;-73
2021/12/06 05:01:11;;;;;;;65.35;32.13;;;3.00;99.90;;;;;;5114232;28;20491;-73
2021/12/06 05:03:38;;;;;;;64.20;28.98;;;3.00;99.90;;;;;;5113757;28;20412;-73
2021/12/06 05:06:10;;;;;;;67.68;29.20;;;2.90;99.90;;;;;;5113649;28;20036;-73
2021/12/06 05:08:43;;;;;;;65.80;30.15;;;2.90;99.90;;;;;;5113730;28;20431;-73
2021/12/06 05:11:09;;;;;;;66.05;30.88;;;2.90;99.90;;;;;;5113927;28;20392;-73
2021/12/06 05:13:38;;;;;;;61.65;29.42;;;3.00;99.90;;;;;;5112912;28;20054;-73
2021/12/06 05:16:04;;;;;;;64.38;28.20;;;3.00;99.90;;;;;;5112479;28;20035;-73
2021/12/06 05:18:29;;;;;;;71.38;32.13;;;3.00;99.90;;;;;;5113900;28;20180;-73
2021/12/06 05:20:55;;;;;;;72.72;32.33;;;3.00;99.90;;;;;;5114100;28;20115;-73
2021/12/06 05:23:21;;;;;;;64.20;32.20;;;3.10;99.90;;;;;;5113670;28;20085;-73
2021/12/06 05:25:47;;;;;;;66.28;32.42;;;3.00;99.90;;;;;;5112329;28;20048;-73
2021/12/06 05:28:13;;;;;;;69.82;31.35;;;3.00;99.90;;;;;;5113431;28;20400;-73
2021/12/06 05:30:40;;;;;;;64.10;29.90;;;3.00;99.90;;;;;;5116057;28;20032;-73
2021/12/06 05:33:09;;;;;;;67.10;31.20;;;3.00;99.90;;;;;;5117801;28;20051;-73
2021/12/06 05:35:35;;;;;;;69.65;31.17;;;3.00;99.90;;;;;;5116260;28;20040;-72
2021/12/06 05:38:03;;;;;;;65.57;32.13;;;3.10;99.90;;;;;;5099255;28;20405;-73
2021/12/06 05:40:34;;;;;;;66.43;30.58;;;3.10;99.90;;;;;;5117651;28;20488;-74
2021/12/06 05:43:01;;;;;;;63.50;29.17;;;2.90;99.90;;;;;;5117615;28;20062;-73
2021/12/06 05:45:28;;;;;;;61.97;28.25;;;3.00;99.90;;;;;;5118004;28;20046;-74
2021/12/06 05:47:55;;;;;;;60.83;28.67;;;3.00;99.90;;;;;;5116093;28;20400;-74
2021/12/06 05:50:23;;;;;;;61.53;27.50;;;3.00;99.90;;;;;;5117562;28;20042;-73
2021/12/06 05:52:49;;;;;;;63.15;29.20;;;3.00;99.90;;;;;;5116348;28;20079;-73
2021/12/06 05:55:14;;;;;;;66.63;30.17;;;3.00;99.90;;;;;;5116131;28;20036;-74
2021/12/06 05:57:42;;;;;;;58.55;27.30;;;3.00;99.90;;;;;;5116914;28;20035;-74
2021/12/06 06:00:11;;;;;;;62.10;28.52;;;2.90;99.90;;;;;;5115901;28;20044;-74
2021/12/06 06:02:37;;;;;;;54.10;27.45;;;3.00;99.90;;;;;;5117416;28;20046;-74
2021/12/06 06:05:03;;;;;;;59.22;27.67;;;3.10;99.90;;;;;;5117472;28;20043;-73
2021/12/06 06:07:29;;;;;;;64.78;29.65;;;3.00;99.90;;;;;;5115804;28;20546;-74
2021/12/06 06:09:54;;;;;;;68.57;30.95;;;3.00;99.90;;;;;;5099140;28;20070;-73
2021/12/06 06:12:20;;;;;;;71.40;32.78;;;3.00;99.90;;;;;;5117207;28;20039;-73
2021/12/06 06:14:46;;;;;;;71.35;32.40;;;3.00;99.90;;;;;;5115756;28;20124;-74
2021/12/06 06:17:14;;;;;;;69.07;31.98;;;3.10;99.90;;;;;;5115228;28;20046;-74
2021/12/06 06:19:52;;;;;;;66.05;32.55;;;3.10;99.90;;;;;;5115567;28;20085;-73
2021/12/06 06:22:19;;;;;;;67.63;30.95;;;3.10;99.90;;;;;;5117243;28;20122;-74
2021/12/06 06:24:45;;;;;;;64.50;28.50;;;3.10;99.90;;;;;;5115478;28;20058;-74
2021/12/06 06:27:11;;;;;;;55.58;27.65;;;3.20;99.90;;;;;;5115039;28;20131;-74
2021/12/06 06:29:36;;;;;;;57.55;27.27;;;3.10;99.90;;;;;;5116429;27;20043;-74
2021/12/06 06:32:05;;;;;;;57.65;27.88;;;3.10;99.90;;;;;;5122102;27;20039;-74
2021/12/06 06:34:31;;;;;;;56.63;27.30;;;3.10;99.90;;;;;;5115419;27;20435;-73
2021/12/06 06:36:57;;;;;;;63.95;29.30;;;3.10;99.90;;;;;;5116138;27;20079;-72
2021/12/06 06:39:22;;;;;;;61.88;26.38;;;3.10;99.90;;;;;;5115334;28;20473;-72
2021/12/06 06:41:52;;;;;;;61.17;27.85;;;3.10;99.90;;;;;;5096591;28;20039;-72
2021/12/06 06:44:20;;;;;;;64.38;28.95;;;3.10;99.90;;;;;;5115553;28;20048;-72
2021/12/06 06:46:47;;;;;;;69.30;31.00;;;3.10;99.90;;;;;;5115172;28;20039;-72
2021/12/06 06:49:14;;;;;;;72.82;33.58;;;3.10;99.90;;;;;;5114220;28;20078;-72
2021/12/06 06:51:41;;;;;;;70.80;31.52;;;3.10;99.90;;;;;;5114066;28;20051;-72
2021/12/06 06:54:07;;;;;;;78.70;33.20;;;3.00;99.90;;;;;;5114636;28;20039;-72
2021/12/06 06:56:33;;;;;;;66.10;30.63;;;3.00;99.90;;;;;;5114647;28;20123;-72
2021/12/06 06:58:58;;;;;;;57.08;28.08;;;3.00;99.90;;;;;;5116438;28;20540;-72
2021/12/06 07:01:24;;;;;;;55.05;26.95;;;3.00;99.90;;;;;;5116160;28;20512;-72
2021/12/06 07:03:53;;;;;;;49.05;26.02;;;3.00;99.90;;;;;;5116573;28;20036;-72
2021/12/06 07:06:21;;;;;;;54.95;25.52;;;2.90;99.90;;;;;;5115962;28;20047;-72
2021/12/06 07:08:46;;;;;;;54.90;25.52;;;2.90;99.90;;;;;;5115578;28;20542;-72
2021/12/06 07:11:12;;;;;;;49.00;24.02;;;2.90;99.90;;;;;;5116026;28;20101;-72
2021/12/06 07:13:39;;;;;;;55.60;26.67;;;2.90;99.90;;;;;;5116450;28;20032;-72
2021/12/06 07:16:07;;;;;;;50.28;24.60;;;2.90;99.90;;;;;;5115509;28;20035;-72
2021/12/06 07:18:33;;;;;;;60.00;27.05;;;2.90;99.90;;;;;;5116170;28;20070;-71
2021/12/06 07:20:59;;;;;;;55.03;27.50;;;2.90;99.90;;;;;;5115831;28;20048;-72
2021/12/06 07:23:25;;;;;;;61.95;28.98;;;2.80;99.90;;;;;;5115781;28;20038;-72
2021/12/06 07:25:50;;;;;;;57.60;26.25;;;2.90;99.90;;;;;;5096713;28;20377;-72
2021/12/06 07:28:16;;;;;;;59.88;27.55;;;2.90;99.90;;;;;;5115767;28;20131;-72
2021/12/06 07:30:42;;;;;;;65.43;29.20;;;2.90;99.90;;;;;;5114301;28;20055;-72
2021/12/06 07:33:07;;;;;;;61.70;28.30;;;2.90;99.90;;;;;;5114197;28;20453;-72
2021/12/06 07:35:33;;;;;;;69.60;29.67;;;2.80;99.90;;;;;;5115276;28;20059;-73
2021/12/06 07:38:00;;;;;;;72.10;29.27;;;2.90;99.90;;;;;;5115425;28;20105;-73
2021/12/06 07:40:29;;;;;;;69.75;29.40;;;2.90;99.90;;;;;;5115278;28;20046;-72
2021/12/06 07:42:55;;;;;;;73.13;33.08;;;2.90;99.90;;;;;;5097195;28;20050;-72
2021/12/06 07:45:21;;;;;;;68.28;29.67;;;2.90;99.90;;;;;;5115733;28;20036;-72
2021/12/06 07:47:47;;;;;;;68.85;30.38;;;2.90;99.90;;;;;;5114771;28;20508;-73
2021/12/06 07:50:15;;;;;;;66.90;31.08;;;2.90;99.90;;;;;;5113915;28;20511;-73
2021/12/06 07:52:42;;;;;;;68.63;30.48;;;2.90;99.90;;;;;;5115339;28;20055;-72
2021/12/06 07:55:11;;;;;;;65.30;29.30;;;2.90;99.90;;;;;;5114545;28;20036;-72
2021/12/06 07:57:37;;;;;;;70.20;29.80;;;2.90;99.90;;;;;;5114448;28;20507;-72
2021/12/06 08:00:16;;;;;;;68.57;30.38;;;2.90;99.90;;;;;;5115614;28;20110;-73
2021/12/06 08:02:41;;;;;;;66.03;28.67;;;2.90;99.90;;;;;;5114997;28;20508;-71
2021/12/06 08:07:54;;;;;;;67.03;29.23;;;2.90;99.90;;;;;;5114588;28;20071;-75
2021/12/06 08:10:20;;;;;;;63.15;29.80;;;2.90;99.90;;;;;;5115151;28;20164;-72
2021/12/06 08:12:46;;;;;;;65.70;27.98;;;2.90;99.90;;;;;;5114793;28;20036;-72
2021/12/06 08:15:11;;;;;;;65.30;28.65;;;2.90;99.90;;;;;;5114773;28;20038;-72
2021/12/06 08:17:37;;;;;;;64.00;29.05;;;3.00;99.90;;;;;;5112945;28;20477;-72
2021/12/06 08:20:05;;;;;;;67.78;30.08;;;3.00;99.90;;;;;;5114555;28;20401;-72
2021/12/06 08:22:33;;;;;;;62.05;27.88;;;3.00;99.90;;;;;;5113558;28;20489;-73
2021/12/06 08:25:00;;;;;;;70.18;31.20;;;3.00;99.90;;;;;;5114458;28;20443;-73
2021/12/06 08:27:26;;;;;;;69.28;33.15;;;3.00;99.90;;;;;;5114076;28;20106;-72
2021/12/06 08:29:51;;;;;;;73.72;29.42;;;3.00;99.90;;;;;;5114914;28;20544;-72
2021/12/06 08:32:18;;;;;;;72.15;32.17;;;3.00;99.90;;;;;;5114703;28;20126;-72
2021/12/06 08:34:44;;;;;;;73.57;31.20;;;3.00;99.90;;;;;;5114493;28;20039;-72
2021/12/06 08:37:11;;;;;;;71.15;34.42;;;3.00;99.90;;;;;;5112671;28;20092;-72
2021/12/06 08:39:38;;;;;;;70.50;31.33;;;3.10;99.90;;;;;;5114525;28;20040;-72
2021/12/06 08:42:04;;;;;;;62.78;29.65;;;3.10;99.90;;;;;;5112265;28;20048;-72
2021/12/06 08:44:30;;;;;;;63.97;29.48;;;3.10;99.90;;;;;;5112771;28;20058;-72
2021/12/06 08:46:56;;;;;;;68.68;31.10;;;3.10;99.90;;;;;;5095427;28;20404;-72
2021/12/06 08:49:22;;;;;;;60.30;28.55;;;3.10;99.90;;;;;;5113143;28;20051;-72
2021/12/06 08:51:50;;;;;;;62.33;29.38;;;3.20;99.90;;;;;;5114451;28;20553;-73
2021/12/06 08:54:18;;;;;;;60.80;28.48;;;3.20;99.90;;;;;;5114389;28;20089;-72
2021/12/06 08:56:46;;;;;;;65.28;30.38;;;3.20;99.90;;;;;;5113636;28;20080;-72
2021/12/06 08:59:12;;;;;;;64.10;29.88;;;3.20;99.90;;;;;;5114306;28;20039;-71
2021/12/06 09:01:40;;;;;;;55.45;26.42;;;3.20;99.90;;;;;;5114600;28;20075;-72
2021/12/06 09:04:09;;;;;;;53.63;25.77;;;3.30;99.90;;;;;;5113031;28;20047;-72
2021/12/06 09:06:37;;;;;;;48.05;23.48;;;3.30;99.90;;;;;;5111994;28;20047;-72
2021/12/06 09:09:07;;;;;;;50.80;24.25;;;3.30;99.90;;;;;;5113977;28;20054;-71
2021/12/06 09:11:33;;;;;;;56.67;24.75;;;3.30;99.90;;;;;;5113875;28;20397;-72
2021/12/06 09:13:59;;;;;;;56.67;26.38;;;3.40;99.90;;;;;;5112434;28;20048;-73
2021/12/06 09:16:25;;;;;;;51.78;25.10;;;3.40;99.90;;;;;;5113349;28;20032;-71
2021/12/06 09:18:50;;;;;;;60.03;29.13;;;3.40;99.90;;;;;;5113575;28;20114;-71
2021/12/06 09:21:18;;;;;;;52.30;24.42;;;3.40;99.90;;;;;;5114080;28;20044;-72
2021/12/06 09:23:44;;;;;;;51.42;25.38;;;3.40;99.90;;;;;;5114172;28;20040;-71
2021/12/06 09:26:10;;;;;;;51.55;23.77;;;3.40;99.90;;;;;;5112067;28;20400;-72
2021/12/06 09:28:37;;;;;;;48.85;23.67;;;3.40;99.90;;;;;;5112423;28;20048;-71
2021/12/06 09:31:04;;;;;;;52.80;25.10;;;3.50;99.90;;;;;;5114037;28;20039;-71
2021/12/06 09:33:31;;;;;;;41.92;22.17;;;3.50;99.90;;;;;;5113769;28;20096;-71
2021/12/06 09:35:59;;;;;;;49.45;22.98;;;3.50;99.90;;;;;;5112212;28;20465;-71
2021/12/06 09:38:28;;;;;;;44.40;21.85;;;3.60;99.90;;;;;;5112527;28;20044;-70
2021/12/06 09:40:56;;;;;;;45.05;22.33;;;3.60;99.90;;;;;;5112701;28;20388;-70
2021/12/06 09:43:23;;;;;;;44.72;22.20;;;3.60;99.90;;;;;;5112055;28;20374;-72
2021/12/06 09:45:49;;;;;;;47.05;20.77;;;3.60;99.90;;;;;;5113202;28;20568;-71
2021/12/06 09:48:17;;;;;;;44.03;21.95;;;3.50;99.90;;;;;;5112296;28;20035;-71
2021/12/06 09:50:49;;;;;;;38.28;20.80;;;3.40;99.90;;;;;;5113361;28;20050;-71
2021/12/06 09:53:18;;;;;;;41.75;20.70;;;3.50;99.90;;;;;;5113156;28;20070;-71
2021/12/06 09:55:47;;;;;;;44.50;21.55;;;3.40;99.90;;;;;;5112819;28;20446;-71
2021/12/06 09:58:12;;;;;;;42.53;20.55;;;3.50;99.90;;;;;;5113124;28;20044;-71
2021/12/06 10:00:44;;;;;;;44.25;21.17;;;3.50;99.90;;;;;;5113699;28;20452;-71
2021/12/06 10:03:15;;;;;;;42.67;21.73;;;3.50;99.90;;;;;;5111889;28;20079;-70
2021/12/06 10:05:41;;;;;;;48.58;21.40;;;3.50;99.90;;;;;;5113467;28;20047;-72
2021/12/06 10:08:10;;;;;;;40.15;19.45;;;3.60;99.90;;;;;;5113099;28;20423;-72
2021/12/06 10:10:36;;;;;;;45.70;20.20;;;3.60;99.90;;;;;;5113287;28;20043;-71
2021/12/06 10:13:02;;;;;;;39.63;19.30;;;3.60;99.90;;;;;;5111877;28;20055;-72
2021/12/06 10:15:29;;;;;;;33.90;17.50;;;3.60;99.90;;;;;;5113492;28;20079;-72
2021/12/06 10:17:56;;;;;;;39.30;20.27;;;3.60;99.90;;;;;;5115292;28;20047;-72
2021/12/06 10:20:25;;;;;;;40.30;20.55;;;3.50;99.90;;;;;;5115407;28;20043;-72
2021/12/06 10:22:52;;;;;;;45.47;19.38;;;3.50;99.90;;;;;;5116784;28;20039;-72
2021/12/06 10:25:17;;;;;;;41.03;19.70;;;3.60;99.90;;;;;;5116720;28;20032;-72
2021/12/06 10:27:54;;;;;;;39.13;19.60;;;3.60;99.90;;;;;;5116800;28;20035;-72
2021/12/06 10:30:21;;;;;;;40.60;18.30;;;3.60;99.90;;;;;;5117006;28;20524;-72
2021/12/06 10:32:47;;;;;;;44.22;19.95;;;3.60;99.90;;;;;;5117266;28;20044;-72
2021/12/06 10:35:15;;;;;;;41.08;19.70;;;3.50;99.90;;;;;;5116736;28;20039;-72
2021/12/06 10:37:52;;;;;;;48.00;20.75;;;3.50;99.90;;;;;;5116176;28;20430;-73
2021/12/06 10:40:19;;;;;;;41.63;20.05;;;3.50;99.90;;;;;;5117031;28;20045;-72
2021/12/06 10:42:48;;;;;;;41.55;19.63;;;3.40;99.90;;;;;;5116453;28;20043;-72
2021/12/06 10:45:27;;;;;;;46.63;21.92;;;3.50;99.90;;;;;;5117004;28;20110;-72
2021/12/06 10:48:09;;;;;;;47.60;22.50;;;3.40;99.90;;;;;;5115138;28;20059;-72
2021/12/06 10:50:41;;;;;;;42.90;20.73;;;3.50;99.90;;;;;;5116152;28;20565;-72
2021/12/06 10:53:08;;;;;;;44.78;21.23;;;3.50;99.90;;;;;;5116801;28;20032;-72
2021/12/06 10:55:35;;;;;;;44.38;21.35;;;3.40;99.90;;;;;;5115755;28;20488;-72
2021/12/06 10:58:05;;;;;;;44.03;21.35;;;3.40;99.90;;;;;;5116119;28;20035;-72
2021/12/06 11:00:38;;;;;;;44.50;21.52;;;3.50;99.90;;;;;;5115082;28;20044;-72
2021/12/06 11:03:05;;;;;;;43.67;21.17;;;3.50;99.90;;;;;;5116492;28;20059;-72
2021/12/06 11:05:34;;;;;;;44.95;20.80;;;3.50;99.90;;;;;;5115683;28;20039;-74
2021/12/06 11:08:10;;;;;;;41.25;20.42;;;3.50;99.90;;;;;;5114549;28;20039;-73
2021/12/06 11:10:46;;;;;;;42.58;20.95;;;3.50;99.90;;;;;;5116400;28;20426;-71
2021/12/06 11:13:17;;;;;;;44.58;21.10;;;3.50;99.90;;;;;;5098084;28;20038;-72
2021/12/06 11:16:01;;;;;;;44.55;21.77;;;3.40;99.90;;;;;;5114279;28;20078;-73
2021/12/06 11:18:35;;;;;;;;;;;3.50;99.90;;;;;;5115534;28;20544;-73
2021/12/06 11:21:01;;;;;;;;;;;3.50;99.90;;;;;;5114961;28;20006;-72
2021/12/06 11:23:27;;;;;;;43.85;22.15;;;3.50;99.90;;;;;;5115619;28;19967;-71
2021/12/06 11:26:03;;;;;;;47.72;23.10;;;3.50;99.90;;;;;;5114391;28;20050;-71
2021/12/06 11:28:31;;;;;;;55.35;24.50;;;3.50;99.90;;;;;;5115711;28;20035;-71
2021/12/06 11:30:59;;;;;;;58.88;26.98;;;3.50;99.90;;;;;;5114758;28;20051;-71
2021/12/06 11:33:31;;;;;;;54.53;26.73;;;3.50;99.90;;;;;;5115463;28;20047;-71
2021/12/06 11:35:59;;;;;;;59.83;28.38;;;3.50;99.90;;;;;;5115317;28;20035;-71
2021/12/06 11:38:28;;;;;;;54.03;26.55;;;3.60;99.90;;;;;;5115821;28;20035;-71
2021/12/06 11:40:58;;;;;;;46.03;22.55;;;3.60;99.90;;;;;;5115108;28;20039;-71
2021/12/06 11:43:24;;;;;;;42.70;21.13;;;3.70;99.90;;;;;;5115243;28;20051;-71
2021/12/06 11:45:53;;;;;;;40.00;20.00;;;3.70;99.90;;;;;;5115503;28;20105;-71
2021/12/06 11:48:29;;;;;;;40.38;20.80;;;3.60;99.90;;;;;;5113900;28;20085;-71
2021/12/06 11:51:05;;;;;;;39.60;20.38;;;3.60;99.90;;;;;;5115526;28;20046;-70
2021/12/06 11:53:38;;;;;;;36.40;20.00;;;3.70;99.90;;;;;;5113661;28;20051;-68
2021/12/06 11:56:13;;;;;;;35.35;18.65;;;3.80;99.90;;;;;;5113470;28;20043;-69
2021/12/06 11:59:05;;;;;;;40.38;19.92;;;3.90;99.90;;;;;;5113839;28;20509;-68
2021/12/06 12:01:37;;;;;;;34.70;18.80;;;3.90;99.90;;;;;;5113811;28;20057;-68
2021/12/06 12:04:14;;;;;;;38.28;19.10;;;4.00;99.90;;;;;;5114882;28;20051;-67
2021/12/06 12:06:43;;;;;;;38.13;17.63;;;4.10;99.90;;;;;;5113229;28;20088;-69
2021/12/06 12:09:17;;;;;;;36.25;19.02;;;4.20;99.90;;;;;;5114939;28;20097;-69
2021/12/06 12:12:03;;;;;;;37.47;18.60;;;4.20;99.90;;;;;;5114900;28;20139;-69
2021/12/06 12:14:58;;;;;;;29.50;16.25;;;4.30;99.90;;;;;;5115272;28;20051;-69
2021/12/06 12:17:35;;;;;;;32.22;16.77;;;4.30;99.90;;;;;;5109367;28;20060;-69
2021/12/06 12:20:12;;;;;;;31.48;17.15;;;4.30;99.90;;;;;;5114607;28;20120;-70
2021/12/06 12:22:40;;;;;;;32.20;17.23;;;4.30;99.90;;;;;;5114828;28;20039;-68
2021/12/06 12:25:11;;;;;;;28.23;16.05;;;4.40;99.90;;;;;;5114610;28;20111;-69
2021/12/06 12:27:53;;;;;;;28.05;14.55;;;4.40;99.90;;;;;;5113223;28;20039;-69
2021/12/06 12:30:19;;;;;;;31.90;15.75;;;4.40;99.90;;;;;;5113415;28;20047;-68
2021/12/06 12:32:46;;;;;;;26.80;16.75;;;4.50;99.90;;;;;;5114368;28;20055;-68
2021/12/06 12:35:14;;;;;;;29.70;16.40;;;4.50;99.90;;;;;;5114211;28;20257;-68
2021/12/06 12:37:43;;;;;;;27.88;15.23;;;4.50;99.90;;;;;;5112948;28;20047;-68
2021/12/06 12:40:19;;;;;;;27.10;15.68;;;4.50;99.90;;;;;;5114032;28;20036;-68
2021/12/06 12:42:55;;;;;;;29.08;15.75;;;4.60;99.90;;;;;;5114149;28;20038;-68
2021/12/06 12:45:22;;;;;;;32.15;16.23;;;4.60;99.90;;;;;;5095968;28;20118;-68
2021/12/06 12:47:53;;;;;;;28.67;16.08;;;4.50;99.90;;;;;;5112405;28;20046;-68
2021/12/06 12:50:19;;;;;;;33.25;17.85;;;4.50;99.90;;;;;;5113324;28;20385;-68
2021/12/06 12:52:55;;;;;;;30.70;17.25;;;4.50;99.90;;;;;;5114242;28;20040;-68
2021/12/06 12:55:39;;;;;;;28.30;17.15;;;4.50;99.90;;;;;;5112593;28;20128;-68
2021/12/06 12:58:19;;;;;;;32.53;18.48;;;4.50;99.90;;;;;;5112890;27;20051;-68
2021/12/06 13:00:47;;;;;;;33.28;18.65;;;4.60;99.90;;;;;;5112844;28;20036;-68
2021/12/06 13:03:35;;;;;;;39.83;19.58;;;4.50;99.90;;;;;;5113960;28;20074;-68